Time;durP1;ratioP1;P1;durP2;ratioP2;P2;SDS_P1;SDS_P2;PMS_P1;PMS_P2;Temp;Humidity;BMP_temperature;BMP_pressure;BME280_temperature;BME280_humidity;BME280_pressure;Samples;Min_cycle;Max_cycle;Signal;HPM_P1;HPM_P2
2023/09/22 00:01:55;;;;;;;0.98;0.88;;;;;;;;;;5016698;28;20154;-76
2023/09/22 00:04:20;;;;;;;0.63;0.63;;;;;;;;;;5000391;28;20148;-76
2023/09/22 00:06:46;;;;;;;1.23;0.70;;;;;;;;;;5015553;28;20042;-76
2023/09/22 00:09:11;;;;;;;1.20;0.68;;;;;;;;;;5015165;28;20048;-76
2023/09/22 00:11:37;;;;;;;0.60;0.60;;;;;;;;;;5016015;28;20068;-76
2023/09/22 00:14:03;;;;;;;0.60;0.60;;;;;;;;;;5016544;28;20037;-76
2023/09/22 00:16:29;;;;;;;0.60;0.60;;;;;;;;;;5009678;28;20472;-76
2023/09/22 00:18:54;;;;;;;0.80;0.80;;;;;;;;;;5013819;28;20044;-76
2023/09/22 00:21:19;;;;;;;1.52;0.50;;;;;;;;;;5017399;28;20079;-76
2023/09/22 00:23:45;;;;;;;1.17;0.93;;;;;;;;;;5012684;28;20031;-76
2023/09/22 00:26:10;;;;;;;0.60;0.60;;;;;;;;;;5016763;28;20116;-76
2023/09/22 00:28:35;;;;;;;2.45;0.68;;;;;;;;;;5018658;28;20525;-76
2023/09/22 00:31:01;;;;;;;0.60;0.60;;;;;;;;;;5011186;28;20037;-76
2023/09/22 00:33:26;;;;;;;0.60;0.60;;;;;;;;;;5015054;28;20979;-76
2023/09/22 00:35:51;;;;;;;0.90;0.63;;;;;;;;;;4997750;28;20021;-76
2023/09/22 00:38:17;;;;;;;0.70;0.70;;;;;;;;;;5015735;28;20034;-76
2023/09/22 00:40:42;;;;;;;2.88;0.60;;;;;;;;;;5010993;28;20096;-77
2023/09/22 00:43:10;;;;;;;0.70;0.70;;;;;;;;;;5016467;28;20030;-77
2023/09/22 00:45:42;;;;;;;0.57;0.57;;;;;;;;;;5016878;28;20065;-77
2023/09/22 00:48:08;;;;;;;0.60;0.60;;;;;;;;;;5015273;28;20462;-76
2023/09/22 00:50:35;;;;;;;0.85;0.85;;;;;;;;;;5018331;28;20109;-77
2023/09/22 00:53:01;;;;;;;1.15;1.00;;;;;;;;;;5014023;28;20037;-76
2023/09/22 00:55:26;;;;;;;0.77;0.77;;;;;;;;;;5016165;28;20379;-77
2023/09/22 00:57:52;;;;;;;0.82;0.82;;;;;;;;;;5014596;28;20060;-77
2023/09/22 01:00:19;;;;;;;0.90;0.90;;;;;;;;;;5018052;28;20033;-76
2023/09/22 01:02:44;;;;;;;2.25;1.00;;;;;;;;;;5013123;28;20443;-77
2023/09/22 01:05:10;;;;;;;0.80;0.80;;;;;;;;;;5017960;28;20058;-76
2023/09/22 01:07:36;;;;;;;1.00;1.00;;;;;;;;;;5016775;28;20225;-77
2023/09/22 01:10:10;;;;;;;0.77;0.75;;;;;;;;;;5011475;28;20116;-77
2023/09/22 01:12:36;;;;;;;0.60;0.60;;;;;;;;;;5015962;28;20041;-77
2023/09/22 01:15:01;;;;;;;0.63;0.60;;;;;;;;;;5002622;28;20032;-76
2023/09/22 01:17:26;;;;;;;0.55;0.55;;;;;;;;;;5014021;28;20026;-77
2023/09/22 01:19:52;;;;;;;1.08;0.60;;;;;;;;;;4995803;28;20046;-77
2023/09/22 01:22:18;;;;;;;0.75;0.73;;;;;;;;;;5015673;28;20035;-76
2023/09/22 01:24:43;;;;;;;0.80;0.57;;;;;;;;;;5013072;28;20056;-76
2023/09/22 01:27:08;;;;;;;0.50;0.50;;;;;;;;;;5014944;28;20017;-77
2023/09/22 01:29:34;;;;;;;0.60;0.50;;;;;;;;;;5012279;28;20072;-77
2023/09/22 01:32:00;;;;;;;0.75;0.50;;;;;;;;;;5014975;28;20638;-77
2023/09/22 01:34:26;;;;;;;1.33;0.80;;;;;;;;;;5008464;28;20046;-77
2023/09/22 01:36:51;;;;;;;0.60;0.60;;;;;;;;;;5013968;28;20034;-77
2023/09/22 01:39:17;;;;;;;0.52;0.52;;;;;;;;;;5018568;28;20587;-77
2023/09/22 01:41:43;;;;;;;2.67;0.95;;;;;;;;;;5012335;28;20540;-78
2023/09/22 01:44:09;;;;;;;0.60;0.60;;;;;;;;;;5003032;28;20052;-77
2023/09/22 01:46:34;;;;;;;0.98;0.82;;;;;;;;;;5011980;28;20661;-77
2023/09/22 01:48:59;;;;;;;0.50;0.50;;;;;;;;;;5016493;28;20056;-78
2023/09/22 01:51:25;;;;;;;0.50;0.50;;;;;;;;;;5014145;28;20092;-77
2023/09/22 01:53:50;;;;;;;0.63;0.63;;;;;;;;;;4998175;28;20382;-77
2023/09/22 01:56:16;;;;;;;0.50;0.50;;;;;;;;;;5018135;28;20108;-78
2023/09/22 01:58:41;;;;;;;0.80;0.80;;;;;;;;;;5018713;28;20033;-79
2023/09/22 02:01:07;;;;;;;0.90;0.70;;;;;;;;;;5022018;28;20068;-79
2023/09/22 02:03:32;;;;;;;0.70;0.70;;;;;;;;;;5007361;28;20545;-78
2023/09/22 02:05:59;;;;;;;1.05;0.70;;;;;;;;;;5001695;28;20517;-79
2023/09/22 02:08:24;;;;;;;1.10;1.00;;;;;;;;;;5019318;28;20045;-77
2023/09/22 02:10:50;;;;;;;0.70;0.70;;;;;;;;;;5022862;28;20042;-77
2023/09/22 02:13:15;;;;;;;1.00;0.90;;;;;;;;;;5020774;28;20084;-79
2023/09/22 02:15:40;;;;;;;1.05;0.90;;;;;;;;;;5023916;28;20118;-77
2023/09/22 02:18:06;;;;;;;0.77;0.75;;;;;;;;;;5018630;28;20025;-77
2023/09/22 02:20:31;;;;;;;0.90;0.70;;;;;;;;;;5021232;28;20045;-76
2023/09/22 02:22:58;;;;;;;7.22;0.80;;;;;;;;;;5017997;28;20037;-77
2023/09/22 02:25:24;;;;;;;1.80;0.77;;;;;;;;;;5018586;28;20045;-77
2023/09/22 02:27:51;;;;;;;2.90;0.90;;;;;;;;;;5022514;28;20145;-77
2023/09/22 02:30:17;;;;;;;0.88;0.88;;;;;;;;;;5020941;28;20025;-78
2023/09/22 02:32:48;;;;;;;1.33;1.15;;;;;;;;;;5024265;28;20040;-79
2023/09/22 02:35:13;;;;;;;0.90;0.90;;;;;;;;;;5002801;28;20040;-78
2023/09/22 02:37:40;;;;;;;1.58;1.02;;;;;;;;;;5025128;28;20925;-79
2023/09/22 02:40:06;;;;;;;3.85;0.88;;;;;;;;;;5018440;28;20393;-78
2023/09/22 02:42:32;;;;;;;1.20;1.10;;;;;;;;;;5028424;28;20030;-78
2023/09/22 02:44:57;;;;;;;3.63;1.42;;;;;;;;;;5015929;28;20037;-78
2023/09/22 02:47:22;;;;;;;1.42;1.10;;;;;;;;;;5017636;28;20616;-78
2023/09/22 02:49:48;;;;;;;6.38;1.30;;;;;;;;;;5007806;28;20099;-78
2023/09/22 02:52:14;;;;;;;1.40;1.02;;;;;;;;;;5024702;28;20084;-78
2023/09/22 02:54:39;;;;;;;1.45;1.00;;;;;;;;;;5023691;28;20522;-78
2023/09/22 02:57:04;;;;;;;2.90;1.10;;;;;;;;;;5024709;28;20045;-79
2023/09/22 02:59:31;;;;;;;2.80;0.88;;;;;;;;;;5024412;28;20032;-78
2023/09/22 03:01:57;;;;;;;0.98;0.98;;;;;;;;;;5003184;28;20411;-79
2023/09/22 03:04:23;;;;;;;0.98;0.90;;;;;;;;;;5023196;28;20030;-78
2023/09/22 03:06:48;;;;;;;2.28;1.20;;;;;;;;;;5022229;28;20044;-79
2023/09/22 03:09:14;;;;;;;2.85;1.20;;;;;;;;;;5015798;28;20497;-77
2023/09/22 03:11:40;;;;;;;2.00;1.25;;;;;;;;;;5000500;28;20467;-78
2023/09/22 03:14:06;;;;;;;1.20;1.10;;;;;;;;;;5020440;28;20108;-78
2023/09/22 03:16:31;;;;;;;2.33;1.25;;;;;;;;;;5022136;28;20064;-78
2023/09/22 03:18:57;;;;;;;1.00;1.00;;;;;;;;;;5021641;28;20114;-78
2023/09/22 03:21:23;;;;;;;1.30;1.20;;;;;;;;;;5019178;28;20362;-78
2023/09/22 03:23:50;;;;;;;2.20;1.30;;;;;;;;;;5020854;28;20030;-78
2023/09/22 03:26:15;;;;;;;1.40;1.20;;;;;;;;;;5002135;28;20025;-78
2023/09/22 03:28:41;;;;;;;2.35;1.25;;;;;;;;;;5014479;28;20088;-78
2023/09/22 03:31:06;;;;;;;1.48;1.00;;;;;;;;;;5018359;28;20042;-78
2023/09/22 03:33:31;;;;;;;1.70;1.00;;;;;;;;;;5022166;28;20064;-78
2023/09/22 03:35:57;;;;;;;1.13;1.13;;;;;;;;;;5022591;28;20026;-77
2023/09/22 03:38:22;;;;;;;2.95;1.20;;;;;;;;;;5019482;28;20022;-77
2023/09/22 03:40:48;;;;;;;2.22;1.20;;;;;;;;;;5020046;28;20037;-80
2023/09/22 03:43:13;;;;;;;1.30;1.20;;;;;;;;;;5008915;28;20710;-79
2023/09/22 03:45:39;;;;;;;1.05;0.98;;;;;;;;;;5022788;28;20050;-80
2023/09/22 03:48:05;;;;;;;1.20;1.10;;;;;;;;;;5009246;28;20397;-80
2023/09/22 03:50:31;;;;;;;2.00;1.20;;;;;;;;;;5008773;28;20124;-80
2023/09/22 03:52:57;;;;;;;1.30;1.00;;;;;;;;;;5025543;28;20041;-81
2023/09/22 03:55:22;;;;;;;0.82;0.82;;;;;;;;;;5023645;28;20088;-81
2023/09/22 03:57:48;;;;;;;4.75;1.08;;;;;;;;;;5009805;28;20104;-82
2023/09/22 04:00:23;;;;;;;1.05;0.95;;;;;;;;;;5024406;28;20026;-81
2023/09/22 04:02:49;;;;;;;0.98;0.98;;;;;;;;;;5027248;28;20477;-80
2023/09/22 04:05:15;;;;;;;2.92;1.13;;;;;;;;;;5009017;28;20029;-78
2023/09/22 04:07:40;;;;;;;1.10;1.00;;;;;;;;;;5023606;28;20025;-78
2023/09/22 04:10:10;;;;;;;0.93;0.82;;;;;;;;;;5026601;28;20044;-78
2023/09/22 04:12:35;;;;;;;1.38;0.88;;;;;;;;;;5024405;28;20055;-77
2023/09/22 04:15:04;;;;;;;2.03;0.95;;;;;;;;;;5027502;28;20029;-78
2023/09/22 04:17:31;;;;;;;2.78;0.73;;;;;;;;;;5010192;28;20045;-77
2023/09/22 04:19:57;;;;;;;1.45;0.98;;;;;;;;;;5009711;28;20461;-77
2023/09/22 04:22:22;;;;;;;2.08;0.80;;;;;;;;;;5021411;28;20087;-77
2023/09/22 04:24:50;;;;;;;0.77;0.77;;;;;;;;;;5003418;28;20029;-78
2023/09/22 04:27:16;;;;;;;0.80;0.80;;;;;;;;;;5024915;28;20044;-78
2023/09/22 04:29:41;;;;;;;2.10;1.00;;;;;;;;;;5017020;28;20101;-77
2023/09/22 04:32:07;;;;;;;2.60;1.00;;;;;;;;;;5005618;28;20069;-78
2023/09/22 04:34:33;;;;;;;1.92;1.00;;;;;;;;;;5024260;28;20315;-77
2023/09/22 04:36:59;;;;;;;2.22;1.00;;;;;;;;;;5024546;28;20037;-78
2023/09/22 04:39:24;;;;;;;1.42;1.02;;;;;;;;;;5021277;28;20065;-77
2023/09/22 04:41:50;;;;;;;1.10;1.00;;;;;;;;;;5009548;28;20056;-78
2023/09/22 04:44:16;;;;;;;0.77;0.70;;;;;;;;;;5021352;28;20037;-77
2023/09/22 04:46:41;;;;;;;0.93;0.93;;;;;;;;;;5026600;28;20059;-77
2023/09/22 04:49:09;;;;;;;0.65;0.65;;;;;;;;;;5019034;28;20117;-77
2023/09/22 04:51:35;;;;;;;2.25;0.90;;;;;;;;;;5023388;28;20109;-77
2023/09/22 04:54:01;;;;;;;3.85;1.15;;;;;;;;;;5020443;28;20103;-77
2023/09/22 04:56:26;;;;;;;2.05;1.20;;;;;;;;;;5020392;28;20037;-77
2023/09/22 04:58:53;;;;;;;0.82;0.82;;;;;;;;;;5018814;28;20041;-77
2023/09/22 05:01:19;;;;;;;1.23;1.13;;;;;;;;;;5001441;28;20034;-77
2023/09/22 05:03:45;;;;;;;1.88;1.10;;;;;;;;;;5019729;28;20030;-77
2023/09/22 05:06:10;;;;;;;1.10;1.00;;;;;;;;;;5005232;28;20033;-77
2023/09/22 05:08:38;;;;;;;1.75;0.98;;;;;;;;;;5024958;28;20104;-77
2023/09/22 05:11:08;;;;;;;2.20;1.00;;;;;;;;;;5019182;28;20029;-77
2023/09/22 05:13:35;;;;;;;1.00;0.90;;;;;;;;;;4997757;28;20034;-77
2023/09/22 05:16:13;;;;;;;1.38;0.90;;;;;;;;;;5002191;28;20038;-77
2023/09/22 05:18:39;;;;;;;5.68;0.85;;;;;;;;;;5018684;28;20351;-77
2023/09/22 05:21:04;;;;;;;1.10;1.00;;;;;;;;;;5027564;28;20026;-77
2023/09/22 05:23:32;;;;;;;1.13;0.85;;;;;;;;;;5022607;28;20733;-77
2023/09/22 05:25:58;;;;;;;0.82;0.82;;;;;;;;;;5024439;28;20066;-78
2023/09/22 05:28:23;;;;;;;1.13;1.05;;;;;;;;;;5015776;28;20043;-79
2023/09/22 05:30:48;;;;;;;1.67;0.80;;;;;;;;;;5020774;28;20041;-79
2023/09/22 05:33:14;;;;;;;1.45;1.20;;;;;;;;;;5026740;28;20389;-77
2023/09/22 05:35:39;;;;;;;1.25;1.15;;;;;;;;;;5021125;28;20064;-78
2023/09/22 05:38:05;;;;;;;1.02;0.93;;;;;;;;;;5019698;28;20040;-77
2023/09/22 05:40:34;;;;;;;3.75;1.10;;;;;;;;;;5020595;28;20041;-78
2023/09/22 05:43:00;;;;;;;3.17;1.10;;;;;;;;;;5038343;28;20548;-78
2023/09/22 05:45:26;;;;;;;0.80;0.80;;;;;;;;;;5038086;28;20120;-79
2023/09/22 05:47:51;;;;;;;2.25;1.02;;;;;;;;;;5021281;28;20041;-79
2023/09/22 05:50:17;;;;;;;3.95;1.08;;;;;;;;;;5021008;28;20034;-77
2023/09/22 05:52:42;;;;;;;2.78;1.30;;;;;;;;;;5033941;28;20125;-77
2023/09/22 05:55:08;;;;;;;4.05;1.10;;;;;;;;;;5036034;28;20186;-77
2023/09/22 05:57:34;;;;;;;5.72;1.25;;;;;;;;;;5035974;28;20113;-77
2023/09/22 06:00:00;;;;;;;1.98;1.33;;;;;;;;;;5036563;28;20520;-76
2023/09/22 06:02:25;;;;;;;1.92;1.00;;;;;;;;;;5035513;28;20040;-76
2023/09/22 06:04:55;;;;;;;1.10;1.00;;;;;;;;;;5035370;28;20057;-77
2023/09/22 06:07:22;;;;;;;2.70;0.93;;;;;;;;;;5035054;28;20443;-77
2023/09/22 06:09:48;;;;;;;2.03;0.90;;;;;;;;;;5035416;28;20520;-76
2023/09/22 06:12:13;;;;;;;2.53;1.30;;;;;;;;;;5030195;28;20025;-76
2023/09/22 06:14:39;;;;;;;1.30;1.05;;;;;;;;;;5035745;28;20441;-77
2023/09/22 06:17:04;;;;;;;8.02;1.15;;;;;;;;;;5035168;28;20029;-75
2023/09/22 06:19:30;;;;;;;1.55;1.00;;;;;;;;;;5035664;28;20044;-77
2023/09/22 06:21:55;;;;;;;1.20;1.10;;;;;;;;;;5035318;28;20056;-77
2023/09/22 06:24:20;;;;;;;1.10;1.00;;;;;;;;;;5035732;28;20112;-77
2023/09/22 06:26:46;;;;;;;2.08;1.10;;;;;;;;;;5036911;28;20025;-77
2023/09/22 06:29:12;;;;;;;3.15;1.23;;;;;;;;;;5036591;28;20045;-77
2023/09/22 06:31:37;;;;;;;7.40;1.00;;;;;;;;;;5035290;28;20045;-77
2023/09/22 06:34:04;;;;;;;1.98;1.20;;;;;;;;;;5018009;28;20060;-77
2023/09/22 06:36:30;;;;;;;1.42;1.23;;;;;;;;;;5035702;28;20083;-77
2023/09/22 06:38:55;;;;;;;5.13;1.05;;;;;;;;;;5035017;28;20441;-76
2023/09/22 06:41:20;;;;;;;7.22;1.38;;;;;;;;;;5005626;28;20046;-76
2023/09/22 06:43:48;;;;;;;1.70;1.60;;;;;;;;;;5005386;28;20509;-77
2023/09/22 06:46:15;;;;;;;4.80;1.42;;;;;;;;;;5012463;28;20068;-77
2023/09/22 06:48:41;;;;;;;1.45;1.30;;;;;;;;;;5012526;28;20431;-76
2023/09/22 06:51:16;;;;;;;4.00;1.48;;;;;;;;;;5012720;28;20029;-76
2023/09/22 06:53:41;;;;;;;2.80;1.65;;;;;;;;;;5013061;28;20700;-76
2023/09/22 06:56:08;;;;;;;1.30;1.20;;;;;;;;;;5012061;28;20034;-76
2023/09/22 06:58:36;;;;;;;1.40;1.27;;;;;;;;;;5012031;28;20033;-75
2023/09/22 07:01:11;;;;;;;1.35;1.15;;;;;;;;;;5011817;28;20038;-75
2023/09/22 07:03:38;;;;;;;2.08;1.30;;;;;;;;;;5013739;28;20092;-78
2023/09/22 07:06:06;;;;;;;1.67;1.50;;;;;;;;;;5024883;28;20021;-76
2023/09/22 07:08:31;;;;;;;4.47;1.40;;;;;;;;;;5014624;28;20069;-77
2023/09/22 07:11:08;;;;;;;2.58;1.00;;;;;;;;;;5018411;28;20433;-75
2023/09/22 07:13:34;;;;;;;1.40;1.30;;;;;;;;;;5016563;28;20137;-77
2023/09/22 07:15:59;;;;;;;3.35;1.42;;;;;;;;;;5013946;28;20526;-77
2023/09/22 07:18:25;;;;;;;2.38;1.23;;;;;;;;;;5014799;28;20433;-77
2023/09/22 07:20:51;;;;;;;2.53;1.40;;;;;;;;;;4998214;28;20076;-77
2023/09/22 07:23:17;;;;;;;1.20;1.13;;;;;;;;;;5016624;28;20037;-77
2023/09/22 07:25:42;;;;;;;1.13;1.02;;;;;;;;;;5016108;28;20210;-77
2023/09/22 07:28:08;;;;;;;1.88;1.10;;;;;;;;;;5015233;28;20038;-76
2023/09/22 07:30:34;;;;;;;4.75;1.00;;;;;;;;;;5015463;28;20034;-76
2023/09/22 07:33:00;;;;;;;1.15;1.10;;;;;;;;;;5015041;28;20022;-76
2023/09/22 07:35:25;;;;;;;3.35;1.20;;;;;;;;;;4996927;28;20091;-77
2023/09/22 07:37:50;;;;;;;3.78;1.08;;;;;;;;;;5014944;28;20041;-76
2023/09/22 07:40:16;;;;;;;2.08;1.30;;;;;;;;;;5013465;28;20069;-77
2023/09/22 07:42:44;;;;;;;1.02;1.00;;;;;;;;;;5014223;28;20062;-75
2023/09/22 07:45:10;;;;;;;1.17;1.00;;;;;;;;;;5021469;28;20017;-76
2023/09/22 07:47:37;;;;;;;1.40;1.02;;;;;;;;;;5003265;28;20025;-77
2023/09/22 07:50:06;;;;;;;1.58;0.90;;;;;;;;;;5014358;28;20117;-77
2023/09/22 07:52:32;;;;;;;1.13;0.90;;;;;;;;;;5013773;28;20136;-77
2023/09/22 07:54:59;;;;;;;2.33;1.00;;;;;;;;;;5014839;28;20030;-77
2023/09/22 07:57:25;;;;;;;1.23;0.80;;;;;;;;;;5005528;28;20510;-77
2023/09/22 07:59:51;;;;;;;3.58;1.05;;;;;;;;;;4998388;28;20033;-77
2023/09/22 08:02:17;;;;;;;0.85;0.85;;;;;;;;;;5015786;28;20038;-78
2023/09/22 08:04:43;;;;;;;4.35;1.00;;;;;;;;;;5020091;28;20029;-77
2023/09/22 08:07:08;;;;;;;1.38;0.95;;;;;;;;;;5033003;28;20057;-77
2023/09/22 08:09:33;;;;;;;1.38;0.88;;;;;;;;;;5033179;28;20037;-75
2023/09/22 08:11:59;;;;;;;4.40;0.90;;;;;;;;;;5034196;28;20022;-77
2023/09/22 08:14:25;;;;;;;1.25;0.73;;;;;;;;;;5030908;28;20022;-78
2023/09/22 08:16:50;;;;;;;1.52;0.85;;;;;;;;;;5013806;28;20029;-77
2023/09/22 08:19:16;;;;;;;3.15;0.70;;;;;;;;;;5013878;28;20033;-79
2023/09/22 08:21:41;;;;;;;0.70;0.70;;;;;;;;;;5012053;28;20636;-76
2023/09/22 08:24:07;;;;;;;3.17;0.80;;;;;;;;;;5027679;28;20036;-77
2023/09/22 08:26:33;;;;;;;1.08;0.73;;;;;;;;;;5021984;28;20034;-77
2023/09/22 08:29:00;;;;;;;1.77;0.90;;;;;;;;;;5012070;28;20033;-77
2023/09/22 08:31:26;;;;;;;0.90;0.90;;;;;;;;;;4994450;28;20034;-76
2023/09/22 08:33:52;;;;;;;2.55;1.02;;;;;;;;;;5018295;28;20038;-76
2023/09/22 08:36:17;;;;;;;0.98;0.90;;;;;;;;;;5031113;28;20021;-76
2023/09/22 08:38:43;;;;;;;0.90;0.90;;;;;;;;;;5014249;28;20087;-77
2023/09/22 08:41:08;;;;;;;1.10;1.00;;;;;;;;;;4996127;28;20061;-77
2023/09/22 08:43:35;;;;;;;0.70;0.70;;;;;;;;;;5011464;28;20064;-77
2023/09/22 08:46:01;;;;;;;1.35;0.90;;;;;;;;;;5011773;28;20034;-77
2023/09/22 08:48:27;;;;;;;1.00;0.95;;;;;;;;;;4998381;28;20034;-76
2023/09/22 08:50:53;;;;;;;1.17;0.73;;;;;;;;;;5019861;28;20555;-76
2023/09/22 08:53:19;;;;;;;1.40;0.77;;;;;;;;;;5030721;28;20029;-77
2023/09/22 08:55:44;;;;;;;1.98;0.90;;;;;;;;;;5030608;28;20048;-76
2023/09/22 08:58:09;;;;;;;2.55;0.80;;;;;;;;;;5020873;28;20041;-76
2023/09/22 09:00:35;;;;;;;1.58;0.63;;;;;;;;;;5012458;28;20094;-77
2023/09/22 09:03:09;;;;;;;1.20;1.13;;;;;;;;;;5028074;28;20547;-77
2023/09/22 09:05:35;;;;;;;1.52;0.70;;;;;;;;;;5034620;28;20600;-76
2023/09/22 09:08:11;;;;;;;3.40;0.90;;;;;;;;;;5016246;28;20072;-77
2023/09/22 09:10:37;;;;;;;1.05;0.70;;;;;;;;;;5033895;28;20122;-76
2023/09/22 09:13:03;;;;;;;0.75;0.75;;;;;;;;;;5034688;28;20037;-76
2023/09/22 09:15:30;;;;;;;1.00;0.68;;;;;;;;;;5035913;28;20704;-77
2023/09/22 09:18:07;;;;;;;2.60;0.70;;;;;;;;;;5036381;28;20547;-77
2023/09/22 09:20:36;;;;;;;0.65;0.65;;;;;;;;;;5036973;28;20116;-78
2023/09/22 09:23:18;;;;;;;0.70;0.70;;;;;;;;;;5030405;28;20048;-77
2023/09/22 09:25:49;;;;;;;1.75;0.85;;;;;;;;;;5016541;28;20033;-77
2023/09/22 09:28:16;;;;;;;1.30;0.68;;;;;;;;;;5015443;28;20056;-77
2023/09/22 09:30:59;;;;;;;0.63;0.60;;;;;;;;;;5015730;28;20401;-76
2023/09/22 09:33:26;;;;;;;1.17;0.68;;;;;;;;;;4997839;28;20036;-76
2023/09/22 09:35:53;;;;;;;0.80;0.73;;;;;;;;;;5020944;28;20028;-76
2023/09/22 09:38:20;;;;;;;0.98;0.75;;;;;;;;;;5030419;28;20048;-77
2023/09/22 09:40:46;;;;;;;0.85;0.70;;;;;;;;;;5033322;28;20585;-77
2023/09/22 09:43:13;;;;;;;0.80;0.80;;;;;;;;;;5034083;28;20124;-77
2023/09/22 09:45:45;;;;;;;1.08;0.65;;;;;;;;;;5033602;28;20513;-76
2023/09/22 09:48:16;;;;;;;0.60;0.60;;;;;;;;;;5033025;28;20424;-76
2023/09/22 09:50:51;;;;;;;0.70;0.70;;;;;;;;;;5033689;28;20021;-77
2023/09/22 09:53:31;;;;;;;;;;;;;;;;;;5033072;28;20144;-76
2023/09/22 09:55:59;;;;;;;0.70;0.70;;;;;;;;;;5006546;28;20605;-77
2023/09/22 09:58:32;;;;;;;0.80;0.80;;;;;;;;;;5013277;28;20034;-77
2023/09/22 10:00:59;;;;;;;0.85;0.85;;;;;;;;;;5013221;28;20045;-77
2023/09/22 10:03:26;;;;;;;0.80;0.80;;;;;;;;;;4995600;28;20034;-76
2023/09/22 10:05:53;;;;;;;0.60;0.60;;;;;;;;;;5013902;28;20156;-76
2023/09/22 10:08:26;;;;;;;1.40;0.90;;;;;;;;;;4995225;28;20030;-76
2023/09/22 10:10:55;;;;;;;0.80;0.80;;;;;;;;;;5012738;28;20034;-75
2023/09/22 10:13:21;;;;;;;0.80;0.80;;;;;;;;;;5013207;28;20045;-75
2023/09/22 10:15:59;;;;;;;0.80;0.80;;;;;;;;;;5019127;28;20035;-76
2023/09/22 10:18:49;;;;;;;0.73;0.73;;;;;;;;;;5007723;28;20041;-77
2023/09/22 10:21:38;;;;;;;0.98;0.70;;;;;;;;;;5016674;28;20022;-76
2023/09/22 10:24:17;;;;;;;2.55;0.80;;;;;;;;;;5033016;28;20030;-78
2023/09/22 10:26:55;;;;;;;0.80;0.80;;;;;;;;;;5015465;28;20021;-75
2023/09/22 10:29:33;;;;;;;0.73;0.73;;;;;;;;;;5032811;28;20042;-76
2023/09/22 10:32:24;;;;;;;0.80;0.80;;;;;;;;;;5032208;28;20037;-77
2023/09/22 10:34:51;;;;;;;0.98;0.50;;;;;;;;;;5014800;28;20052;-76
2023/09/22 10:37:18;;;;;;;0.75;0.75;;;;;;;;;;5032193;28;20030;-76
2023/09/22 10:40:19;;;;;;;1.95;0.70;;;;;;;;;;5017427;28;20034;-76
2023/09/22 10:42:46;;;;;;;0.73;0.60;;;;;;;;;;5012531;28;20219;-77
2023/09/22 10:45:13;;;;;;;1.25;0.75;;;;;;;;;;5023399;28;20039;-75
2023/09/22 10:47:46;;;;;;;0.50;0.50;;;;;;;;;;4995432;28;20650;-77
2023/09/22 10:50:31;;;;;;;1.35;0.60;;;;;;;;;;5012549;28;20073;-74
2023/09/22 10:52:58;;;;;;;0.60;0.60;;;;;;;;;;5026617;28;20030;-76
2023/09/22 10:55:34;;;;;;;5.57;0.90;;;;;;;;;;5013780;28;20030;-77
2023/09/22 10:58:02;;;;;;;2.58;0.70;;;;;;;;;;5019154;28;20513;-75
2023/09/22 11:00:27;;;;;;;1.00;0.90;;;;;;;;;;5032204;28;20029;-77
2023/09/22 11:02:54;;;;;;;1.00;0.68;;;;;;;;;;5019342;28;20025;-77
2023/09/22 11:05:20;;;;;;;0.57;0.50;;;;;;;;;;5033769;28;20060;-76
2023/09/22 11:07:47;;;;;;;0.50;0.50;;;;;;;;;;5034072;28;20533;-77
2023/09/22 11:10:22;;;;;;;0.95;0.75;;;;;;;;;;5034210;28;20092;-77
2023/09/22 11:12:51;;;;;;;0.60;0.60;;;;;;;;;;5033649;28;20064;-78
2023/09/22 11:15:17;;;;;;;0.50;0.50;;;;;;;;;;5033089;28;20558;-75
2023/09/22 11:17:46;;;;;;;0.77;0.60;;;;;;;;;;5027457;28;20025;-75
2023/09/22 11:20:16;;;;;;;0.60;0.60;;;;;;;;;;5019813;28;20067;-76
2023/09/22 11:22:42;;;;;;;0.70;0.70;;;;;;;;;;5031435;28;20484;-76
2023/09/22 11:25:09;;;;;;;0.70;0.70;;;;;;;;;;5015168;28;20116;-77
2023/09/22 11:28:01;;;;;;;1.70;0.60;;;;;;;;;;5011186;28;20048;-76
2023/09/22 11:30:26;;;;;;;0.45;0.45;;;;;;;;;;4992770;28;20543;-76
2023/09/22 11:32:53;;;;;;;0.50;0.50;;;;;;;;;;5019321;28;20021;-76
2023/09/22 11:35:41;;;;;;;0.40;0.40;;;;;;;;;;4995804;28;20513;-76
2023/09/22 11:38:27;;;;;;;0.57;0.57;;;;;;;;;;4999826;28;20048;-76
2023/09/22 11:41:20;;;;;;;0.35;0.35;;;;;;;;;;5016792;28;20038;-76
2023/09/22 11:43:47;;;;;;;0.30;0.30;;;;;;;;;;5010691;28;20044;-76
2023/09/22 11:46:23;;;;;;;0.57;0.50;;;;;;;;;;5023674;28;20046;-76
2023/09/22 11:49:02;;;;;;;0.47;0.47;;;;;;;;;;5020068;28;20084;-76
2023/09/22 11:51:50;;;;;;;0.50;0.50;;;;;;;;;;5025629;28;20045;-76
2023/09/22 11:54:23;;;;;;;0.52;0.40;;;;;;;;;;5022778;28;20026;-76
2023/09/22 11:56:50;;;;;;;0.30;0.30;;;;;;;;;;4993667;28;20022;-76
2023/09/22 11:59:20;;;;;;;0.30;0.30;;;;;;;;;;5014900;28;20038;-77
2023/09/22 12:01:47;;;;;;;3.03;0.40;;;;;;;;;;5014609;28;20096;-76
2023/09/22 12:04:13;;;;;;;0.55;0.40;;;;;;;;;;4997585;28;20034;-76
2023/09/22 12:06:40;;;;;;;1.02;0.40;;;;;;;;;;5017001;28;20040;-76
2023/09/22 12:09:13;;;;;;;0.40;0.40;;;;;;;;;;5017629;28;20052;-76
2023/09/22 12:11:42;;;;;;;0.50;0.50;;;;;;;;;;5013702;28;20032;-75
2023/09/22 12:14:09;;;;;;;0.40;0.40;;;;;;;;;;5013205;28;20601;-76
2023/09/22 12:16:35;;;;;;;0.30;0.30;;;;;;;;;;5015404;28;20049;-76
2023/09/22 12:19:00;;;;;;;0.30;0.30;;;;;;;;;;5007520;28;20506;-76
2023/09/22 12:21:27;;;;;;;3.25;0.50;;;;;;;;;;4997711;28;20042;-77
2023/09/22 12:23:53;;;;;;;0.30;0.30;;;;;;;;;;5012235;28;20038;-76
2023/09/22 12:26:18;;;;;;;0.55;0.55;;;;;;;;;;5014740;28;21049;-76
2023/09/22 12:28:44;;;;;;;1.17;1.08;;;;;;;;;;5000281;28;20045;-77
2023/09/22 12:31:09;;;;;;;0.50;0.50;;;;;;;;;;5008363;28;20044;-77
2023/09/22 12:33:35;;;;;;;0.40;0.40;;;;;;;;;;4994591;28;20053;-76
2023/09/22 12:36:01;;;;;;;0.98;0.55;;;;;;;;;;5018517;28;20021;-77
2023/09/22 12:38:26;;;;;;;0.30;0.30;;;;;;;;;;5003319;28;20029;-76
2023/09/22 12:40:52;;;;;;;0.40;0.40;;;;;;;;;;5015930;28;20410;-76
2023/09/22 12:43:17;;;;;;;0.22;0.20;;;;;;;;;;5014770;28;20132;-76
2023/09/22 12:45:43;;;;;;;0.38;0.38;;;;;;;;;;5016627;28;20188;-77
2023/09/22 12:48:13;;;;;;;0.30;0.30;;;;;;;;;;5001090;28;20048;-77
2023/09/22 12:50:39;;;;;;;0.50;0.50;;;;;;;;;;4997123;28;20040;-77
2023/09/22 12:53:05;;;;;;;0.30;0.30;;;;;;;;;;5019127;28;20045;-77
2023/09/22 12:55:31;;;;;;;0.35;0.35;;;;;;;;;;5016818;28;20045;-77
2023/09/22 12:57:58;;;;;;;0.50;0.50;;;;;;;;;;5017051;28;20056;-77
2023/09/22 13:00:23;;;;;;;1.63;0.65;;;;;;;;;;5017374;28;20128;-76
2023/09/22 13:02:49;;;;;;;0.47;0.47;;;;;;;;;;4999208;28;20060;-77
2023/09/22 13:05:14;;;;;;;0.60;0.60;;;;;;;;;;5019151;28;20079;-77
2023/09/22 13:07:39;;;;;;;0.65;0.60;;;;;;;;;;5017273;28;20045;-76
2023/09/22 13:10:07;;;;;;;2.00;0.80;;;;;;;;;;5013550;28;20038;-75
2023/09/22 13:12:33;;;;;;;0.88;0.50;;;;;;;;;;5013489;28;20038;-75
2023/09/22 13:14:59;;;;;;;0.55;0.50;;;;;;;;;;5004907;28;20474;-76
2023/09/22 13:17:25;;;;;;;0.40;0.40;;;;;;;;;;5010778;28;20029;-75
2023/09/22 13:19:50;;;;;;;0.43;0.43;;;;;;;;;;5003367;28;20049;-75
2023/09/22 13:22:16;;;;;;;0.43;0.43;;;;;;;;;;5016198;28;20042;-75
2023/09/22 13:24:43;;;;;;;0.40;0.40;;;;;;;;;;5015953;28;20052;-75
2023/09/22 13:27:09;;;;;;;0.50;0.50;;;;;;;;;;5015714;28;20053;-75
2023/09/22 13:29:34;;;;;;;0.50;0.50;;;;;;;;;;5015779;28;20512;-76
2023/09/22 13:32:00;;;;;;;0.60;0.40;;;;;;;;;;5016323;28;20041;-76
2023/09/22 13:34:25;;;;;;;0.57;0.55;;;;;;;;;;5018570;28;20057;-76
2023/09/22 13:36:50;;;;;;;2.42;0.45;;;;;;;;;;5014892;28;20066;-76
2023/09/22 13:39:16;;;;;;;1.05;0.70;;;;;;;;;;4999392;28;20405;-76
2023/09/22 13:41:41;;;;;;;1.70;0.60;;;;;;;;;;5003139;28;20026;-75
2023/09/22 13:44:07;;;;;;;1.05;1.05;;;;;;;;;;5016589;28;20072;-75
2023/09/22 13:46:33;;;;;;;0.40;0.40;;;;;;;;;;5015853;28;20029;-75
2023/09/22 13:48:58;;;;;;;0.45;0.45;;;;;;;;;;5012813;28;20045;-75
2023/09/22 13:51:29;;;;;;;1.70;0.65;;;;;;;;;;4997262;28;20038;-75
2023/09/22 13:53:54;;;;;;;0.45;0.38;;;;;;;;;;5021903;28;20033;-75
2023/09/22 13:56:19;;;;;;;5.28;0.50;;;;;;;;;;5001139;28;20502;-74
2023/09/22 13:58:47;;;;;;;0.40;0.40;;;;;;;;;;5020032;28;20072;-75
2023/09/22 14:01:42;;;;;;;2.28;0.40;;;;;;;;;;5021152;28;20096;-76
2023/09/22 14:04:07;;;;;;;0.47;0.47;;;;;;;;;;4991721;28;20780;-75
2023/09/22 14:06:32;;;;;;;0.40;0.40;;;;;;;;;;5017620;28;20171;-75
2023/09/22 14:08:58;;;;;;;15.00;0.80;;;;;;;;;;5020937;28;20036;-75
2023/09/22 14:11:23;;;;;;;3.22;0.50;;;;;;;;;;5016697;28;20041;-75
2023/09/22 14:13:49;;;;;;;5.90;0.70;;;;;;;;;;5013447;28;20041;-75
2023/09/22 14:16:14;;;;;;;0.47;0.47;;;;;;;;;;5017552;28;20069;-74
2023/09/22 14:18:39;;;;;;;0.45;0.45;;;;;;;;;;5018978;28;20114;-75
2023/09/22 14:21:08;;;;;;;0.60;0.60;;;;;;;;;;5022006;28;20454;-75
2023/09/22 14:23:34;;;;;;;0.70;0.70;;;;;;;;;;4998067;28;20412;-75
2023/09/22 14:25:59;;;;;;;0.40;0.40;;;;;;;;;;5025060;28;20087;-77
2023/09/22 14:28:26;;;;;;;0.50;0.50;;;;;;;;;;5024811;28;20107;-77
2023/09/22 14:30:52;;;;;;;1.15;0.80;;;;;;;;;;5022833;28;20045;-78
2023/09/22 14:33:17;;;;;;;0.85;0.85;;;;;;;;;;5030477;28;20083;-77
2023/09/22 14:35:43;;;;;;;0.70;0.70;;;;;;;;;;5029172;28;20065;-77
2023/09/22 14:38:09;;;;;;;1.50;0.60;;;;;;;;;;5008541;28;20188;-78
2023/09/22 14:40:34;;;;;;;1.52;0.93;;;;;;;;;;5032600;28;20151;-78
2023/09/22 14:42:59;;;;;;;1.30;0.60;;;;;;;;;;5015923;28;20033;-77
2023/09/22 14:45:25;;;;;;;0.75;0.73;;;;;;;;;;5025062;28;20048;-78